sensor_id;sensor_type;location;lat;lon;timestamp;pressure;altitude;pressure_sealevel;temperature;humidity
65280;BME280;51878;55.748;48.742;2023-01-31T00:02:04;97914.59;;;-4.54;100.00
65280;BME280;51878;55.748;48.742;2023-01-31T00:04:31;98079.91;;;-3.55;100.00
65280;BME280;51878;55.748;48.742;2023-01-31T00:06:58;98100.22;;;-3.34;100.00
65280;BME280;51878;55.748;48.742;2023-01-31T00:09:25;98088.63;;;-3.33;100.00
65280;BME280;51878;55.748;48.742;2023-01-31T00:11:52;98088.00;;;-3.46;100.00
65280;BME280;51878;55.748;48.742;2023-01-31T00:14:19;98064.22;;;-3.67;100.00
65280;BME280;51878;55.748;48.742;2023-01-31T00:16:46;98020.53;;;-3.83;100.00
65280;BME280;51878;55.748;48.742;2023-01-31T00:19:14;98102.69;;;-3.42;100.00
65280;BME280;51878;55.748;48.742;2023-01-31T00:21:41;98070.34;;;-3.46;100.00
65280;BME280;51878;55.748;48.742;2023-01-31T00:24:37;98093.56;;;-3.28;100.00
65280;BME280;51878;55.748;48.742;2023-01-31T00:27:11;98011.34;;;-3.79;100.00
65280;BME280;51878;55.748;48.742;2023-01-31T00:29:38;97910.13;;;-4.53;100.00
65280;BME280;51878;55.748;48.742;2023-01-31T00:32:05;98079.94;;;-3.45;100.00
65280;BME280;51878;55.748;48.742;2023-01-31T00:34:34;98068.72;;;-3.58;100.00
65280;BME280;51878;55.748;48.742;2023-01-31T00:37:01;98096.03;;;-3.37;100.00
65280;BME280;51878;55.748;48.742;2023-01-31T00:39:28;98031.34;;;-3.65;100.00
65280;BME280;51878;55.748;48.742;2023-01-31T00:41:55;98088.63;;;-3.33;100.00
65280;BME280;51878;55.748;48.742;2023-01-31T00:44:22;98110.53;;;-3.31;100.00
65280;BME280;51878;55.748;48.742;2023-01-31T00:51:25;98091.16;;;-3.32;100.00
65280;BME280;51878;55.748;48.742;2023-01-31T00:54:03;98105.22;;;-3.31;100.00
65280;BME280;51878;55.748;48.742;2023-01-31T00:56:33;98001.16;;;-3.83;100.00
65280;BME280;51878;55.748;48.742;2023-01-31T00:59:01;98023.06;;;-3.81;100.00
65280;BME280;51878;55.748;48.742;2023-01-31T01:01:30;97985.63;;;-3.98;100.00
65280;BME280;51878;55.748;48.742;2023-01-31T01:03:57;98104.69;;;-3.35;100.00
65280;BME280;51878;55.748;48.742;2023-01-31T01:06:24;98038.19;;;-3.62;100.00
65280;BME280;51878;55.748;48.742;2023-01-31T01:08:52;98066.56;;;-3.43;100.00
65280;BME280;51878;55.748;48.742;2023-01-31T01:11:28;98041.66;;;-3.62;100.00
65280;BME280;51878;55.748;48.742;2023-01-31T01:13:56;98022.56;;;-3.65;100.00
65280;BME280;51878;55.748;48.742;2023-01-31T01:16:33;98106.09;;;-3.30;100.00
65280;BME280;51878;55.748;48.742;2023-01-31T01:19:07;98094.22;;;-3.26;100.00
65280;BME280;51878;55.748;48.742;2023-01-31T01:21:36;98084.72;;;-3.39;100.00
65280;BME280;51878;55.748;48.742;2023-01-31T01:24:13;97818.41;;;-4.84;100.00
65280;BME280;51878;55.748;48.742;2023-01-31T01:26:42;98000.06;;;-3.81;100.00
65280;BME280;51878;55.748;48.742;2023-01-31T01:29:30;98088.25;;;-3.28;100.00
65280;BME280;51878;55.748;48.742;2023-01-31T01:32:26;98005.66;;;-3.74;100.00
65280;BME280;51878;55.748;48.742;2023-01-31T01:35:08;98069.38;;;-3.35;100.00
65280;BME280;51878;55.748;48.742;2023-01-31T01:37:48;98034.28;;;-3.58;100.00
65280;BME280;51878;55.748;48.742;2023-01-31T01:40:19;98062.53;;;-3.38;100.00
65280;BME280;51878;55.748;48.742;2023-01-31T01:42:52;98059.88;;;-3.38;100.00
65280;BME280;51878;55.748;48.742;2023-01-31T01:45:19;97996.81;;;-3.84;100.00
65280;BME280;51878;55.748;48.742;2023-01-31T01:47:52;98056.84;;;-3.33;100.00
65280;BME280;51878;55.748;48.742;2023-01-31T01:50:28;98061.31;;;-3.34;100.00
65280;BME280;51878;55.748;48.742;2023-01-31T01:53:06;98050.16;;;-3.37;100.00
65280;BME280;51878;55.748;48.742;2023-01-31T01:55:40;98042.03;;;-3.45;100.00
65280;BME280;51878;55.748;48.742;2023-01-31T01:58:47;98074.31;;;-3.21;100.00
65280;BME280;51878;55.748;48.742;2023-01-31T02:01:15;98054.59;;;-3.38;100.00
65280;BME280;51878;55.748;48.742;2023-01-31T02:03:44;98081.78;;;-3.36;100.00
65280;BME280;51878;55.748;48.742;2023-01-31T02:06:12;97987.00;;;-3.72;100.00
65280;BME280;51878;55.748;48.742;2023-01-31T02:08:40;98050.56;;;-3.32;100.00
65280;BME280;51878;55.748;48.742;2023-01-31T02:11:20;98045.72;;;-3.27;100.00
65280;BME280;51878;55.748;48.742;2023-01-31T02:13:51;98064.13;;;-3.25;100.00
65280;BME280;51878;55.748;48.742;2023-01-31T02:16:19;98048.50;;;-3.28;100.00
65280;BME280;51878;55.748;48.742;2023-01-31T02:18:47;98032.91;;;-3.22;100.00
65280;BME280;51878;55.748;48.742;2023-01-31T02:29:16;98075.16;;;-3.20;100.00
65280;BME280;51878;55.748;48.742;2023-01-31T02:32:20;98072.66;;;-3.22;100.00
65280;BME280;51878;55.748;48.742;2023-01-31T02:38:40;98067.22;;;-3.20;100.00
65280;BME280;51878;55.748;48.742;2023-01-31T02:44:20;97917.09;;;-4.01;100.00
65280;BME280;51878;55.748;48.742;2023-01-31T02:49:58;98054.66;;;-3.18;100.00
65280;BME280;51878;55.748;48.742;2023-01-31T02:52:51;98071.56;;;-3.19;100.00
65280;BME280;51878;55.748;48.742;2023-01-31T02:55:29;97996.00;;;-3.44;100.00
65280;BME280;51878;55.748;48.742;2023-01-31T02:58:19;98033.88;;;-3.23;100.00
65280;BME280;51878;55.748;48.742;2023-01-31T03:01:13;98070.03;;;-3.02;100.00
65280;BME280;51878;55.748;48.742;2023-01-31T03:03:42;98054.66;;;-3.28;100.00
65280;BME280;51878;55.748;48.742;2023-01-31T03:23:26;97907.66;;;-3.84;100.00
65280;BME280;51878;55.748;48.742;2023-01-31T03:26:10;98040.88;;;-3.12;100.00
65280;BME280;51878;55.748;48.742;2023-01-31T03:35:19;97927.38;;;-4.28;100.00
65280;BME280;51878;55.748;48.742;2023-01-31T03:38:10;98047.44;;;-3.47;100.00
65280;BME280;51878;55.748;48.742;2023-01-31T03:40:57;98041.44;;;-3.49;100.00
65280;BME280;51878;55.748;48.742;2023-01-31T03:43:35;98071.59;;;-3.40;100.00
65280;BME280;51878;55.748;48.742;2023-01-31T03:46:30;98073.53;;;-3.42;100.00
65280;BME280;51878;55.748;48.742;2023-01-31T03:48:55;98016.25;;;-3.74;100.00
65280;BME280;51878;55.748;48.742;2023-01-31T03:51:26;98104.97;;;-3.28;100.00
65280;BME280;51878;55.748;48.742;2023-01-31T03:54:00;98020.56;;;-3.73;100.00
65280;BME280;51878;55.748;48.742;2023-01-31T03:56:34;98099.06;;;-3.10;100.00
65280;BME280;51878;55.748;48.742;2023-01-31T03:59:11;98085.19;;;-3.24;100.00
65280;BME280;51878;55.748;48.742;2023-01-31T04:01:43;98072.72;;;-3.33;100.00
65280;BME280;51878;55.748;48.742;2023-01-31T04:04:25;98036.66;;;-3.55;100.00
65280;BME280;51878;55.748;48.742;2023-01-31T04:06:54;98111.31;;;-3.09;100.00
65280;BME280;51878;55.748;48.742;2023-01-31T04:09:21;98112.94;;;-3.28;100.00
65280;BME280;51878;55.748;48.742;2023-01-31T04:11:49;98114.06;;;-3.21;100.00
65280;BME280;51878;55.748;48.742;2023-01-31T04:14:16;98127.63;;;-3.14;100.00
65280;BME280;51878;55.748;48.742;2023-01-31T04:16:44;98142.19;;;-3.08;100.00
65280;BME280;51878;55.748;48.742;2023-01-31T04:19:11;98090.75;;;-3.27;99.37
65280;BME280;51878;55.748;48.742;2023-01-31T04:21:38;98082.25;;;-3.61;98.90
65280;BME280;51878;55.748;48.742;2023-01-31T04:24:05;98117.00;;;-3.24;97.68
65280;BME280;51878;55.748;48.742;2023-01-31T04:26:35;98117.84;;;-3.44;97.07
65280;BME280;51878;55.748;48.742;2023-01-31T04:29:05;98113.16;;;-3.41;97.44
65280;BME280;51878;55.748;48.742;2023-01-31T04:31:32;98126.19;;;-3.28;97.02
65280;BME280;51878;55.748;48.742;2023-01-31T04:33:59;98010.09;;;-4.05;97.45
65280;BME280;51878;55.748;48.742;2023-01-31T04:36:26;98089.88;;;-3.68;97.19
65280;BME280;51878;55.748;48.742;2023-01-31T04:38:53;98073.03;;;-3.88;97.17
65280;BME280;51878;55.748;48.742;2023-01-31T04:41:21;98116.41;;;-3.58;97.21
65280;BME280;51878;55.748;48.742;2023-01-31T04:43:48;98129.63;;;-3.58;97.10
65280;BME280;51878;55.748;48.742;2023-01-31T04:46:15;98153.69;;;-3.50;96.70
65280;BME280;51878;55.748;48.742;2023-01-31T04:48:42;98133.59;;;-3.53;97.33
65280;BME280;51878;55.748;48.742;2023-01-31T04:51:09;98159.22;;;-3.53;97.21
65280;BME280;51878;55.748;48.742;2023-01-31T04:53:36;98066.94;;;-4.00;97.40
65280;BME280;51878;55.748;48.742;2023-01-31T04:56:03;98062.38;;;-3.98;96.99
65280;BME280;51878;55.748;48.742;2023-01-31T04:58:31;98026.94;;;-4.27;97.50
65280;BME280;51878;55.748;48.742;2023-01-31T05:01:01;97978.63;;;-4.71;96.94
65280;BME280;51878;55.748;48.742;2023-01-31T05:03:28;98112.47;;;-3.85;97.80
65280;BME280;51878;55.748;48.742;2023-01-31T05:05:55;98124.38;;;-3.79;97.82
65280;BME280;51878;55.748;48.742;2023-01-31T05:08:22;98090.53;;;-3.97;98.10
65280;BME280;51878;55.748;48.742;2023-01-31T05:10:58;98044.88;;;-4.31;98.45
65280;BME280;51878;55.748;48.742;2023-01-31T05:13:27;98101.13;;;-3.97;98.53
65280;BME280;51878;55.748;48.742;2023-01-31T05:15:55;98183.66;;;-3.49;98.79
65280;BME280;51878;55.748;48.742;2023-01-31T05:18:27;98160.50;;;-3.47;99.50
65280;BME280;51878;55.748;48.742;2023-01-31T05:21:18;98187.00;;;-3.47;99.68
65280;BME280;51878;55.748;48.742;2023-01-31T05:23:53;98173.00;;;-3.59;100.00
65280;BME280;51878;55.748;48.742;2023-01-31T05:26:34;98125.53;;;-3.72;100.00
65280;BME280;51878;55.748;48.742;2023-01-31T05:29:01;98141.78;;;-3.56;100.00
65280;BME280;51878;55.748;48.742;2023-01-31T05:32:01;98146.50;;;-3.59;100.00
65280;BME280;51878;55.748;48.742;2023-01-31T05:34:29;98129.38;;;-3.55;100.00
65280;BME280;51878;55.748;48.742;2023-01-31T05:39:37;98166.19;;;-3.31;100.00
65280;BME280;51878;55.748;48.742;2023-01-31T05:42:24;98014.56;;;-4.27;100.00
65280;BME280;51878;55.748;48.742;2023-01-31T05:45:01;98115.16;;;-3.54;100.00
65280;BME280;51878;55.748;48.742;2023-01-31T05:47:50;98167.34;;;-3.24;100.00
65280;BME280;51878;55.748;48.742;2023-01-31T05:50:31;98139.44;;;-3.28;100.00
65280;BME280;51878;55.748;48.742;2023-01-31T05:53:15;98134.13;;;-3.28;100.00
65280;BME280;51878;55.748;48.742;2023-01-31T05:55:42;98079.78;;;-3.74;100.00
65280;BME280;51878;55.748;48.742;2023-01-31T05:58:22;98131.91;;;-3.23;100.00
65280;BME280;51878;55.748;48.742;2023-01-31T06:00:55;98162.44;;;-2.98;100.00
65280;BME280;51878;55.748;48.742;2023-01-31T06:03:22;98147.78;;;-3.02;100.00
65280;BME280;51878;55.748;48.742;2023-01-31T06:05:52;97856.81;;;-4.80;100.00
65280;BME280;51878;55.748;48.742;2023-01-31T06:08:19;98166.28;;;-2.81;100.00
65280;BME280;51878;55.748;48.742;2023-01-31T06:10:46;98168.66;;;-2.78;100.00
65280;BME280;51878;55.748;48.742;2023-01-31T06:13:13;98161.38;;;-2.85;100.00
65280;BME280;51878;55.748;48.742;2023-01-31T06:15:44;98146.44;;;-2.86;100.00
65280;BME280;51878;55.748;48.742;2023-01-31T06:18:11;98162.19;;;-2.85;100.00
65280;BME280;51878;55.748;48.742;2023-01-31T06:20:39;98126.47;;;-2.91;100.00
65280;BME280;51878;55.748;48.742;2023-01-31T06:23:05;98178.59;;;-2.60;100.00
65280;BME280;51878;55.748;48.742;2023-01-31T06:25:32;98039.56;;;-3.37;100.00
65280;BME280;51878;55.748;48.742;2023-01-31T06:27:59;98156.31;;;-2.58;100.00
65280;BME280;51878;55.748;48.742;2023-01-31T06:30:26;98171.00;;;-2.44;100.00
65280;BME280;51878;55.748;48.742;2023-01-31T06:33:01;98154.06;;;-2.53;100.00
65280;BME280;51878;55.748;48.742;2023-01-31T06:35:42;98112.28;;;-2.70;100.00
65280;BME280;51878;55.748;48.742;2023-01-31T06:38:12;98095.78;;;-2.74;100.00
65280;BME280;51878;55.748;48.742;2023-01-31T06:40:43;98102.81;;;-2.63;100.00
65280;BME280;51878;55.748;48.742;2023-01-31T06:43:10;98113.81;;;-2.67;100.00
65280;BME280;51878;55.748;48.742;2023-01-31T06:45:46;98151.44;;;-2.43;100.00
65280;BME280;51878;55.748;48.742;2023-01-31T06:48:18;98046.16;;;-3.22;100.00
65280;BME280;51878;55.748;48.742;2023-01-31T06:50:46;98069.59;;;-3.17;100.00
65280;BME280;51878;55.748;48.742;2023-01-31T06:53:13;98140.06;;;-2.74;100.00
65280;BME280;51878;55.748;48.742;2023-01-31T06:55:40;98182.72;;;-2.46;100.00
65280;BME280;51878;55.748;48.742;2023-01-31T06:58:07;98041.19;;;-3.46;100.00
65280;BME280;51878;55.748;48.742;2023-01-31T07:00:37;98109.16;;;-2.95;100.00
65280;BME280;51878;55.748;48.742;2023-01-31T07:03:04;98198.34;;;-2.53;100.00
65280;BME280;51878;55.748;48.742;2023-01-31T07:05:31;98201.69;;;-2.51;100.00
65280;BME280;51878;55.748;48.742;2023-01-31T07:07:59;98192.03;;;-2.52;100.00
65280;BME280;51878;55.748;48.742;2023-01-31T07:10:26;98180.72;;;-2.64;100.00
65280;BME280;51878;55.748;48.742;2023-01-31T07:12:55;98188.56;;;-2.53;100.00
65280;BME280;51878;55.748;48.742;2023-01-31T07:15:23;98188.47;;;-2.32;100.00
65280;BME280;51878;55.748;48.742;2023-01-31T07:18:00;98099.44;;;-2.84;100.00
65280;BME280;51878;55.748;48.742;2023-01-31T07:20:29;98179.94;;;-2.35;100.00
65280;BME280;51878;55.748;48.742;2023-01-31T07:22:57;98130.84;;;-2.60;100.00
65280;BME280;51878;55.748;48.742;2023-01-31T07:25:27;98191.56;;;-2.17;100.00
65280;BME280;51878;55.748;48.742;2023-01-31T07:27:55;98164.03;;;-2.25;100.00
65280;BME280;51878;55.748;48.742;2023-01-31T07:30:22;98211.97;;;-2.08;100.00
65280;BME280;51878;55.748;48.742;2023-01-31T07:32:50;98192.00;;;-2.12;100.00
65280;BME280;51878;55.748;48.742;2023-01-31T07:35:17;98173.94;;;-2.28;100.00
65280;BME280;51878;55.748;48.742;2023-01-31T07:37:44;98196.03;;;-2.17;100.00
65280;BME280;51878;55.748;48.742;2023-01-31T07:40:13;98181.50;;;-2.23;100.00
65280;BME280;51878;55.748;48.742;2023-01-31T07:42:41;98136.38;;;-2.42;100.00
65280;BME280;51878;55.748;48.742;2023-01-31T07:45:11;98134.13;;;-2.28;100.00
65280;BME280;51878;55.748;48.742;2023-01-31T07:47:49;98074.56;;;-2.74;100.00
65280;BME280;51878;55.748;48.742;2023-01-31T07:50:16;98159.28;;;-2.12;100.00
65280;BME280;51878;55.748;48.742;2023-01-31T07:52:44;98215.22;;;-1.75;100.00
65280;BME280;51878;55.748;48.742;2023-01-31T07:55:12;98196.19;;;-1.51;100.00
65280;BME280;51878;55.748;48.742;2023-01-31T07:57:38;98151.63;;;-1.86;100.00
65280;BME280;51878;55.748;48.742;2023-01-31T08:00:07;98161.50;;;-1.59;100.00
65280;BME280;51878;55.748;48.742;2023-01-31T08:02:56;98141.72;;;-1.94;100.00
65280;BME280;51878;55.748;48.742;2023-01-31T08:05:45;98190.88;;;-1.41;100.00
65280;BME280;51878;55.748;48.742;2023-01-31T08:08:12;98198.41;;;-1.46;100.00
65280;BME280;51878;55.748;48.742;2023-01-31T08:10:39;98144.75;;;-1.79;100.00
65280;BME280;51878;55.748;48.742;2023-01-31T08:13:06;98128.28;;;-1.82;100.00
65280;BME280;51878;55.748;48.742;2023-01-31T08:15:33;98154.69;;;-1.81;100.00
65280;BME280;51878;55.748;48.742;2023-01-31T08:18:00;98226.66;;;-1.35;100.00
65280;BME280;51878;55.748;48.742;2023-01-31T08:20:30;98210.31;;;-1.40;100.00
65280;BME280;51878;55.748;48.742;2023-01-31T08:22:57;98157.31;;;-1.61;100.00
65280;BME280;51878;55.748;48.742;2023-01-31T08:25:26;98237.03;;;-1.32;100.00
65280;BME280;51878;55.748;48.742;2023-01-31T08:27:58;98220.41;;;-1.54;100.00
65280;BME280;51878;55.748;48.742;2023-01-31T08:30:28;98205.94;;;-1.12;100.00
65280;BME280;51878;55.748;48.742;2023-01-31T08:32:55;98210.34;;;-0.93;100.00
65280;BME280;51878;55.748;48.742;2023-01-31T08:35:24;98218.06;;;-1.00;100.00
65280;BME280;51878;55.748;48.742;2023-01-31T08:37:55;98205.19;;;-0.95;100.00
65280;BME280;51878;55.748;48.742;2023-01-31T08:40:40;98135.47;;;-1.36;100.00
65280;BME280;51878;55.748;48.742;2023-01-31T08:43:08;98194.81;;;-0.88;100.00
65280;BME280;51878;55.748;48.742;2023-01-31T08:45:35;98216.97;;;-1.07;100.00
65280;BME280;51878;55.748;48.742;2023-01-31T08:48:02;98219.28;;;-0.85;100.00
65280;BME280;51878;55.748;48.742;2023-01-31T08:50:31;98148.44;;;-1.33;100.00
65280;BME280;51878;55.748;48.742;2023-01-31T08:53:00;98174.59;;;-1.18;100.00
65280;BME280;51878;55.748;48.742;2023-01-31T08:55:29;98178.63;;;-1.05;99.67
65280;BME280;51878;55.748;48.742;2023-01-31T08:57:57;98132.06;;;-1.18;99.48
65280;BME280;51878;55.748;48.742;2023-01-31T09:00:31;98143.59;;;-1.00;98.98
65280;BME280;51878;55.748;48.742;2023-01-31T09:03:13;98233.16;;;-0.44;99.41
65280;BME280;51878;55.748;48.742;2023-01-31T09:05:48;98217.72;;;-0.77;100.00
65280;BME280;51878;55.748;48.742;2023-01-31T09:08:15;98139.56;;;-1.04;99.71
65280;BME280;51878;55.748;48.742;2023-01-31T09:10:53;98200.72;;;-0.67;100.00
65280;BME280;51878;55.748;48.742;2023-01-31T09:13:21;98155.50;;;-0.94;100.00
65280;BME280;51878;55.748;48.742;2023-01-31T09:16:06;98208.19;;;-0.70;100.00
65280;BME280;51878;55.748;48.742;2023-01-31T09:21:51;98199.09;;;-0.77;100.00
65280;BME280;51878;55.748;48.742;2023-01-31T09:24:22;98207.19;;;-0.69;100.00
65280;BME280;51878;55.748;48.742;2023-01-31T09:26:49;98239.16;;;-0.42;100.00
65280;BME280;51878;55.748;48.742;2023-01-31T09:29:16;98249.69;;;-0.50;100.00
65280;BME280;51878;55.748;48.742;2023-01-31T09:31:43;98242.84;;;-0.52;100.00
65280;BME280;51878;55.748;48.742;2023-01-31T09:34:10;98215.81;;;-0.57;100.00
65280;BME280;51878;55.748;48.742;2023-01-31T09:36:37;98145.09;;;-1.25;100.00
65280;BME280;51878;55.748;48.742;2023-01-31T09:39:04;98169.63;;;-0.94;100.00
65280;BME280;51878;55.748;48.742;2023-01-31T09:41:47;98198.31;;;-0.88;100.00
65280;BME280;51878;55.748;48.742;2023-01-31T09:44:28;98234.16;;;-0.54;100.00
65280;BME280;51878;55.748;48.742;2023-01-31T09:50:04;98208.69;;;-0.57;100.00
65280;BME280;51878;55.748;48.742;2023-01-31T09:52:33;98175.75;;;-0.84;100.00
65280;BME280;51878;55.748;48.742;2023-01-31T09:55:00;98253.88;;;-0.37;100.00
65280;BME280;51878;55.748;48.742;2023-01-31T10:00:34;98243.78;;;-0.44;100.00
65280;BME280;51878;55.748;48.742;2023-01-31T10:05:52;98158.16;;;-0.67;100.00
65280;BME280;51878;55.748;48.742;2023-01-31T10:11:06;98221.22;;;-0.39;100.00
65280;BME280;51878;55.748;48.742;2023-01-31T10:13:45;98174.97;;;-0.66;100.00
65280;BME280;51878;55.748;48.742;2023-01-31T10:16:31;98245.22;;;-0.22;100.00
65280;BME280;51878;55.748;48.742;2023-01-31T10:19:08;98177.09;;;-0.79;100.00
65280;BME280;51878;55.748;48.742;2023-01-31T10:21:42;98161.94;;;-0.97;100.00
65280;BME280;51878;55.748;48.742;2023-01-31T10:24:28;98236.75;;;-0.35;100.00
65280;BME280;51878;55.748;48.742;2023-01-31T10:27:53;98247.47;;;-0.54;100.00
65280;BME280;51878;55.748;48.742;2023-01-31T10:30:22;98215.44;;;-0.63;100.00
65280;BME280;51878;55.748;48.742;2023-01-31T10:32:56;98224.94;;;-0.60;100.00
65280;BME280;51878;55.748;48.742;2023-01-31T10:35:30;98171.63;;;-1.06;100.00
65280;BME280;51878;55.748;48.742;2023-01-31T10:38:23;98139.78;;;-1.25;100.00
65280;BME280;51878;55.748;48.742;2023-01-31T10:40:58;98221.69;;;-0.81;100.00
65280;BME280;51878;55.748;48.742;2023-01-31T10:46:18;98231.19;;;-0.89;100.00
65280;BME280;51878;55.748;48.742;2023-01-31T10:48:46;98032.25;;;-1.97;100.00
65280;BME280;51878;55.748;48.742;2023-01-31T10:56:36;98169.28;;;-1.18;100.00
65280;BME280;51878;55.748;48.742;2023-01-31T10:59:12;98190.50;;;-1.09;100.00
65280;BME280;51878;55.748;48.742;2023-01-31T11:01:40;98238.47;;;-0.81;100.00
65280;BME280;51878;55.748;48.742;2023-01-31T11:06:57;98181.44;;;-1.16;100.00
65280;BME280;51878;55.748;48.742;2023-01-31T11:09:30;98162.34;;;-1.49;100.00
65280;BME280;51878;55.748;48.742;2023-01-31T11:12:01;98228.00;;;-1.02;100.00
65280;BME280;51878;55.748;48.742;2023-01-31T11:14:28;98249.97;;;-0.90;100.00
65280;BME280;51878;55.748;48.742;2023-01-31T11:17:11;98196.03;;;-1.30;100.00
65280;BME280;51878;55.748;48.742;2023-01-31T11:19:51;98197.00;;;-1.31;100.00
65280;BME280;51878;55.748;48.742;2023-01-31T11:22:30;98238.28;;;-1.17;100.00
65280;BME280;51878;55.748;48.742;2023-01-31T11:25:00;98098.94;;;-2.00;100.00
65280;BME280;51878;55.748;48.742;2023-01-31T11:30:06;98184.06;;;-1.63;100.00
65280;BME280;51878;55.748;48.742;2023-01-31T11:32:44;98163.91;;;-1.75;100.00
65280;BME280;51878;55.748;48.742;2023-01-31T11:38:02;98196.06;;;-1.69;100.00
65280;BME280;51878;55.748;48.742;2023-01-31T11:40:36;98231.16;;;-1.46;100.00
65280;BME280;51878;55.748;48.742;2023-01-31T11:43:20;98271.59;;;-1.32;100.00
65280;BME280;51878;55.748;48.742;2023-01-31T11:45:59;98235.06;;;-1.59;100.00
65280;BME280;51878;55.748;48.742;2023-01-31T11:48:40;98268.38;;;-1.36;100.00
65280;BME280;51878;55.748;48.742;2023-01-31T11:51:09;98233.13;;;-1.67;100.00
65280;BME280;51878;55.748;48.742;2023-01-31T11:53:49;98199.97;;;-1.92;100.00
65280;BME280;51878;55.748;48.742;2023-01-31T11:56:19;98271.44;;;-1.50;100.00
65280;BME280;51878;55.748;48.742;2023-01-31T11:58:51;98278.44;;;-1.39;100.00
65280;BME280;51878;55.748;48.742;2023-01-31T12:01:22;98286.28;;;-1.38;100.00
65280;BME280;51878;55.748;48.742;2023-01-31T12:03:58;98274.25;;;-1.32;100.00
65280;BME280;51878;55.748;48.742;2023-01-31T12:06:38;98216.31;;;-1.68;100.00
65280;BME280;51878;55.748;48.742;2023-01-31T12:09:20;98272.41;;;-1.41;100.00
65280;BME280;51878;55.748;48.742;2023-01-31T12:11:58;98267.66;;;-1.28;100.00
65280;BME280;51878;55.748;48.742;2023-01-31T12:14:37;98091.94;;;-2.50;100.00
65280;BME280;51878;55.748;48.742;2023-01-31T12:17:10;98288.78;;;-1.27;100.00
65280;BME280;51878;55.748;48.742;2023-01-31T12:36:25;98198.31;;;-1.74;100.00
65280;BME280;51878;55.748;48.742;2023-01-31T12:39:13;98289.91;;;-1.19;100.00
65280;BME280;51878;55.748;48.742;2023-01-31T12:41:57;98276.91;;;-1.22;100.00
65280;BME280;51878;55.748;48.742;2023-01-31T12:47:35;98297.72;;;-1.08;100.00
65280;BME280;51878;55.748;48.742;2023-01-31T13:01:09;98307.09;;;-1.04;100.00
65280;BME280;51878;55.748;48.742;2023-01-31T13:03:58;98306.28;;;-1.05;100.00
65280;BME280;51878;55.748;48.742;2023-01-31T13:06:35;98334.00;;;-1.07;100.00
65280;BME280;51878;55.748;48.742;2023-01-31T13:09:19;98176.38;;;-1.76;100.00
65280;BME280;51878;55.748;48.742;2023-01-31T13:14:25;98263.19;;;-1.37;100.00
65280;BME280;51878;55.748;48.742;2023-01-31T13:16:56;98274.38;;;-1.34;100.00
65280;BME280;51878;55.748;48.742;2023-01-31T13:19:35;98314.81;;;-1.11;100.00
65280;BME280;51878;55.748;48.742;2023-01-31T13:22:11;98274.09;;;-1.31;100.00
65280;BME280;51878;55.748;48.742;2023-01-31T13:24:42;98324.47;;;-1.10;100.00
65280;BME280;51878;55.748;48.742;2023-01-31T13:27:23;98298.59;;;-1.08;100.00
65280;BME280;51878;55.748;48.742;2023-01-31T13:29:59;98318.84;;;-0.87;100.00
65280;BME280;51878;55.748;48.742;2023-01-31T13:32:38;98336.94;;;-1.00;100.00
65280;BME280;51878;55.748;48.742;2023-01-31T13:35:22;98330.47;;;-0.98;100.00
65280;BME280;51878;55.748;48.742;2023-01-31T13:37:54;98339.84;;;-0.84;100.00
65280;BME280;51878;55.748;48.742;2023-01-31T13:40:24;98303.75;;;-1.06;100.00
65280;BME280;51878;55.748;48.742;2023-01-31T13:42:53;98245.16;;;-1.34;100.00
65280;BME280;51878;55.748;48.742;2023-01-31T13:45:35;98267.66;;;-1.18;100.00
65280;BME280;51878;55.748;48.742;2023-01-31T13:48:13;98136.38;;;-2.03;100.00
65280;BME280;51878;55.748;48.742;2023-01-31T13:50:57;98357.63;;;-0.85;100.00
65280;BME280;51878;55.748;48.742;2023-01-31T13:53:29;98257.84;;;-1.08;100.00
65280;BME280;51878;55.748;48.742;2023-01-31T13:56:00;98373.88;;;-0.78;100.00
65280;BME280;51878;55.748;48.742;2023-01-31T13:58:30;98280.97;;;-1.18;100.00
65280;BME280;51878;55.748;48.742;2023-01-31T14:01:03;98278.97;;;-1.07;100.00
65280;BME280;51878;55.748;48.742;2023-01-31T14:04:35;98287.91;;;-0.98;100.00
65280;BME280;51878;55.748;48.742;2023-01-31T14:09:34;98281.94;;;-1.10;100.00
65280;BME280;51878;55.748;48.742;2023-01-31T14:20:05;98275.50;;;-1.17;100.00
65280;BME280;51878;55.748;48.742;2023-01-31T14:22:34;98311.69;;;-0.87;100.00
65280;BME280;51878;55.748;48.742;2023-01-31T14:58:00;98334.94;;;-0.79;100.00
65280;BME280;51878;55.748;48.742;2023-01-31T15:00:33;98239.28;;;-1.47;100.00
65280;BME280;51878;55.748;48.742;2023-01-31T15:03:22;98381.16;;;-0.70;100.00
65280;BME280;51878;55.748;48.742;2023-01-31T15:05:53;98336.34;;;-0.85;100.00
65280;BME280;51878;55.748;48.742;2023-01-31T15:14:00;98375.25;;;-0.64;100.00
65280;BME280;51878;55.748;48.742;2023-01-31T15:16:59;98411.81;;;-0.66;100.00
65280;BME280;51878;55.748;48.742;2023-01-31T15:19:44;98351.88;;;-0.80;100.00
65280;BME280;51878;55.748;48.742;2023-01-31T15:22:15;98303.88;;;-0.98;100.00
65280;BME280;51878;55.748;48.742;2023-01-31T15:24:46;98180.69;;;-1.84;100.00
65280;BME280;51878;55.748;48.742;2023-01-31T15:27:30;98379.47;;;-0.61;100.00
65280;BME280;51878;55.748;48.742;2023-01-31T15:30:20;98378.16;;;-0.57;100.00
65280;BME280;51878;55.748;48.742;2023-01-31T15:32:55;98403.53;;;-0.53;100.00
65280;BME280;51878;55.748;48.742;2023-01-31T15:35:29;98402.00;;;-0.56;100.00
65280;BME280;51878;55.748;48.742;2023-01-31T15:40:31;98354.78;;;-0.54;100.00
65280;BME280;51878;55.748;48.742;2023-01-31T15:43:22;98361.94;;;-0.54;100.00
65280;BME280;51878;55.748;48.742;2023-01-31T15:45:50;98357.91;;;-0.78;100.00
65280;BME280;51878;55.748;48.742;2023-01-31T15:48:21;98204.28;;;-1.52;100.00
65280;BME280;51878;55.748;48.742;2023-01-31T15:50:53;98142.53;;;-1.93;100.00
65280;BME280;51878;55.748;48.742;2023-01-31T15:53:29;98238.41;;;-1.28;100.00
65280;BME280;51878;55.748;48.742;2023-01-31T15:55:59;98329.28;;;-0.56;100.00
65280;BME280;51878;55.748;48.742;2023-01-31T15:58:29;98293.06;;;-0.87;100.00